Time;durP1;ratioP1;P1;durP2;ratioP2;P2;SDS_P1;SDS_P2;PMS_P1;PMS_P2;Temp;Humidity;BMP_temperature;BMP_pressure;BME280_temperature;BME280_humidity;BME280_pressure;Samples;Min_cycle;Max_cycle;Signal;HPM_P1;HPM_P2
2022/03/16 00:01:59;;;;;;;;;21.25;18.50;;;;;12.33;84.95;101848.97;5072681;27;45358;-70
2022/03/16 00:04:24;;;;;;;;;24.00;19.50;;;;;12.30;84.83;101844.66;5070962;27;45339;-70
2022/03/16 00:06:50;;;;;;;;;18.00;16.75;;;;;12.27;84.82;101840.34;5072361;27;45380;-71
2022/03/16 00:09:15;;;;;;;;;19.25;17.25;;;;;12.25;85.13;101841.28;5072996;28;45984;-70
2022/03/16 00:11:41;;;;;;;;;25.50;21.75;;;;;12.23;85.22;101841.34;5073893;28;45279;-70
2022/03/16 00:14:07;;;;;;;;;26.00;18.25;;;;;12.24;84.91;101843.06;5072191;27;45279;-70
2022/03/16 00:16:32;;;;;;;;;28.25;22.00;;;;;12.23;85.16;101844.00;5072820;27;45430;-70
2022/03/16 00:18:57;;;;;;;;;20.25;19.00;;;;;12.25;85.05;101846.56;5072039;27;45433;-71
2022/03/16 00:21:22;;;;;;;;;24.25;23.25;;;;;12.24;84.98;101845.72;5072658;27;46839;-72
2022/03/16 00:23:48;;;;;;;;;18.50;18.00;;;;;12.26;85.12;101843.88;5076889;27;45417;-72
2022/03/16 00:26:14;;;;;;;;;18.00;17.75;;;;;12.27;85.10;101834.22;5076438;27;45392;-71
2022/03/16 00:28:39;;;;;;;;;18.25;17.25;;;;;12.28;85.06;101839.44;5076031;28;45791;-71
2022/03/16 00:31:05;;;;;;;;;21.50;18.25;;;;;12.30;84.80;101838.50;5075367;27;45549;-71
2022/03/16 00:33:31;;;;;;;;;22.00;17.75;;;;;12.29;84.72;101840.28;5075679;28;45654;-71
2022/03/16 00:35:56;;;;;;;;;22.75;18.00;;;;;12.31;84.70;101840.22;5077549;27;45574;-71
2022/03/16 00:38:22;;;;;;;;;18.25;17.00;;;;;12.31;84.77;101829.69;5074395;27;46037;-71
2022/03/16 00:40:47;;;;;;;;;18.25;16.50;;;;;12.32;84.84;101826.13;5075326;27;45439;-71
2022/03/16 00:43:14;;;;;;;;;20.25;17.75;;;;;12.33;84.79;101822.63;5074354;27;45525;-71
2022/03/16 00:45:39;;;;;;;;;15.50;15.50;;;;;12.34;84.67;101829.59;5075816;28;45649;-71
2022/03/16 00:48:04;;;;;;;;;18.50;18.50;;;;;12.34;84.67;101824.34;5077411;27;46484;-71
2022/03/16 00:50:30;;;;;;;;;22.50;14.75;;;;;12.33;84.65;101828.75;5072696;28;45741;-72
2022/03/16 00:52:56;;;;;;;;;18.25;14.50;;;;;12.33;84.81;101817.34;5075191;27;45300;-71
2022/03/16 00:55:21;;;;;;;;;19.25;15.50;;;;;12.33;84.70;101818.19;5075113;27;45510;-71
2022/03/16 00:57:46;;;;;;;;;20.50;19.00;;;;;12.33;84.72;101810.28;5075698;27;46054;-71
2022/03/16 01:00:12;;;;;;;;;20.75;19.25;;;;;12.33;84.53;101822.63;5076314;27;45313;-71
2022/03/16 01:02:37;;;;;;;;;19.25;16.50;;;;;12.31;84.57;101817.38;5075918;28;45613;-71
2022/03/16 01:05:04;;;;;;;;;18.75;16.50;;;;;12.32;84.52;101819.13;5074436;27;45458;-71
2022/03/16 01:07:29;;;;;;;;;21.25;18.25;;;;;12.31;84.54;101819.16;5074983;27;46101;-71
2022/03/16 01:09:54;;;;;;;;;21.50;16.75;;;;;12.31;84.57;101808.59;5074983;27;45458;-71
2022/03/16 01:12:20;;;;;;;;;20.00;17.00;;;;;12.31;84.61;101803.34;5075814;27;45956;-71
2022/03/16 01:14:46;;;;;;;;;17.25;16.75;;;;;12.30;84.35;101805.09;5077026;27;45483;-71
2022/03/16 01:17:11;;;;;;;;;20.50;18.00;;;;;12.27;84.47;101802.59;5073750;28;45518;-71
2022/03/16 01:19:37;;;;;;;;;18.50;15.00;;;;;12.26;84.19;101803.47;5074599;27;45562;-71
2022/03/16 01:22:05;;;;;;;;;20.25;16.75;;;;;12.25;84.14;101797.34;5073714;27;45592;-71
2022/03/16 01:24:30;;;;;;;;;16.50;12.75;;;;;12.25;84.20;101789.44;5075011;27;45357;-71
2022/03/16 01:26:56;;;;;;;;;18.50;12.00;;;;;12.25;84.05;101788.59;5076761;28;46310;-71
2022/03/16 01:29:22;;;;;;;;;19.00;14.75;;;;;12.25;84.45;101785.94;5074642;27;45584;-71
2022/03/16 01:31:47;;;;;;;;;16.75;14.75;;;;;12.25;84.26;101783.31;5073551;27;45493;-71
2022/03/16 01:34:12;;;;;;;;;18.00;14.75;;;;;12.26;84.25;101782.41;5074246;27;45493;-71
2022/03/16 01:36:38;;;;;;;;;16.75;16.25;;;;;12.24;84.11;101774.53;5074839;27;46164;-71
2022/03/16 01:39:04;;;;;;;;;19.50;17.00;;;;;12.23;84.27;101778.09;5076712;27;45391;-71
2022/03/16 01:41:29;;;;;;;;;14.50;14.00;;;;;12.23;84.32;101774.59;5075042;27;45432;-71
2022/03/16 01:43:56;;;;;;;;;17.25;17.25;;;;;12.21;84.18;101772.00;5074763;27;45443;-71
2022/03/16 01:46:22;;;;;;;;;16.50;16.00;;;;;12.18;84.17;101777.41;5074047;27;46144;-71
2022/03/16 01:48:47;;;;;;;;;21.75;18.75;;;;;12.14;84.14;101765.22;5074086;27;45439;-71
2022/03/16 01:51:13;;;;;;;;;27.25;18.50;;;;;12.11;83.97;101772.34;5075712;27;46528;-71
2022/03/16 01:53:41;;;;;;;;;14.00;11.25;;;;;12.07;84.05;101781.31;5074023;28;45442;-71
2022/03/16 01:56:08;;;;;;;;;16.00;15.00;;;;;12.02;84.10;101776.19;5073033;27;47559;-71
2022/03/16 01:58:33;;;;;;;;;23.75;14.25;;;;;11.99;83.92;101779.75;5073639;27;45836;-71
2022/03/16 02:00:59;;;;;;;;;21.75;16.00;;;;;11.97;83.86;101775.47;5071999;28;45288;-71
2022/03/16 02:03:24;;;;;;;;;15.00;14.00;;;;;11.96;84.20;101784.28;5073960;27;45230;-71
2022/03/16 02:05:49;;;;;;;;;17.00;15.00;;;;;11.94;84.26;101786.09;5075905;27;58390;-71
2022/03/16 02:08:15;;;;;;;;;22.00;15.00;;;;;11.92;84.21;101778.25;5074162;27;45322;-71
2022/03/16 02:10:40;;;;;;;;;22.25;17.75;;;;;11.88;83.80;101771.34;5074313;27;45280;-71
2022/03/16 02:13:10;;;;;;;;;23.75;16.25;;;;;11.84;84.39;101771.47;5074556;27;45854;-71
2022/03/16 02:15:35;;;;;;;;;21.75;18.00;;;;;11.81;84.35;101772.41;5058465;28;46029;-71
2022/03/16 02:18:00;;;;;;;;;19.75;19.00;;;;;11.77;84.27;101774.28;5076028;27;45465;-71
2022/03/16 02:20:27;;;;;;;;;26.00;20.75;;;;;11.74;84.28;101777.03;5073824;27;45288;-71
2022/03/16 02:23:06;;;;;;;;;24.25;18.75;;;;;11.72;84.65;101770.94;5074072;27;45286;-71
2022/03/16 02:25:33;;;;;;;;;24.75;23.50;;;;;11.68;84.49;101766.66;5073787;27;47288;-71
2022/03/16 02:27:59;;;;;;;;;25.50;21.75;;;;;11.68;84.84;101774.56;5073751;27;45561;-71
2022/03/16 02:30:30;;;;;;;;;23.50;21.50;;;;;11.67;84.65;101767.56;5074038;27;45453;-71
2022/03/16 02:32:56;;;;;;;;;21.50;18.00;;;;;11.67;84.88;101761.44;5074597;28;45736;-71
2022/03/16 02:35:22;;;;;;;;;23.00;17.50;;;;;11.66;85.04;101760.59;5072148;27;46251;-71
2022/03/16 02:37:48;;;;;;;;;21.00;16.50;;;;;11.65;84.83;101755.38;5073904;27;45987;-71
2022/03/16 02:40:18;;;;;;;;;20.75;16.25;;;;;11.61;84.81;101765.13;5071693;27;45497;-71
2022/03/16 02:42:43;;;;;;;;;22.00;20.75;;;;;11.59;84.79;101753.81;5073557;28;45495;-71
2022/03/16 02:45:09;;;;;;;;;22.25;18.25;;;;;11.58;84.76;101753.81;5074252;27;46630;-71
2022/03/16 02:47:34;;;;;;;;;19.25;16.75;;;;;11.55;84.89;101757.44;5073535;27;45570;-71
2022/03/16 02:50:01;;;;;;;;;16.75;15.50;;;;;11.53;85.09;101758.38;5073216;27;45377;-71
2022/03/16 02:52:28;;;;;;;;;25.00;17.25;;;;;11.49;85.16;101747.94;5073563;27;45438;-71
2022/03/16 02:54:54;;;;;;;;;17.50;17.50;;;;;11.47;85.04;101754.16;5073375;27;47083;-71
2022/03/16 02:57:19;;;;;;;;;21.25;17.75;;;;;11.45;85.20;101748.09;5073932;27;45337;-71
2022/03/16 02:59:44;;;;;;;;;21.50;17.25;;;;;11.42;85.36;101754.28;5075140;28;45296;-71
2022/03/16 03:02:11;;;;;;;;;25.50;21.25;;;;;11.39;85.36;101749.13;5072748;28;45510;-71
2022/03/16 03:04:36;;;;;;;;;20.25;18.25;;;;;11.37;85.31;101747.44;5072733;27;45574;-71
2022/03/16 03:07:02;;;;;;;;;20.50;16.75;;;;;11.34;85.45;101752.81;5073910;27;45466;-71
2022/03/16 03:09:28;;;;;;;;;20.25;15.50;;;;;11.31;85.56;101753.75;5073444;27;45287;-71
2022/03/16 03:11:53;;;;;;;;;27.00;19.00;;;;;11.27;85.65;101748.63;5074185;27;46014;-71
2022/03/16 03:14:19;;;;;;;;;25.50;18.25;;;;;11.24;85.72;101736.44;5072005;27;46870;-71
2022/03/16 03:16:46;;;;;;;;;26.50;20.00;;;;;11.21;85.63;101740.00;5072862;28;45364;-71
2022/03/16 03:19:12;;;;;;;;;24.25;21.75;;;;;11.19;85.52;101746.22;5073169;27;45803;-71
2022/03/16 03:21:37;;;;;;;;;23.00;18.25;;;;;11.18;85.64;101749.78;5073124;27;45393;-71
2022/03/16 03:24:03;;;;;;;;;20.25;18.75;;;;;11.16;85.99;101744.53;5074859;27;47043;-71
2022/03/16 03:26:28;;;;;;;;;25.25;19.75;;;;;11.14;86.01;101746.38;5073183;27;45291;-71
2022/03/16 03:28:53;;;;;;;;;21.67;15.00;;;;;11.12;85.60;101747.28;5072797;28;51687;-71
2022/03/16 03:31:19;;;;;;;;;28.00;22.75;;;;;11.10;85.89;101743.88;5072366;27;45406;-71
2022/03/16 03:33:44;;;;;;;;;19.25;16.75;;;;;11.07;85.61;101744.84;5072672;27;46080;-72
2022/03/16 03:36:09;;;;;;;;;22.75;20.00;;;;;11.05;85.86;101751.88;5074291;27;45378;-71
2022/03/16 03:38:34;;;;;;;;;23.25;17.00;;;;;11.03;85.80;101745.81;5072888;27;45556;-71
2022/03/16 03:41:00;;;;;;;;;17.25;17.00;;;;;11.01;85.88;101742.34;5072179;27;45487;-71
2022/03/16 03:43:25;;;;;;;;;20.75;18.25;;;;;11.00;85.94;101756.41;5072652;27;47560;-71
2022/03/16 03:45:51;;;;;;;;;20.25;16.50;;;;;10.99;86.05;101754.69;5072436;27;45512;-71
2022/03/16 03:48:16;;;;;;;;;24.00;17.50;;;;;10.99;85.77;101754.69;5073578;27;45237;-71
2022/03/16 03:50:41;;;;;;;;;29.75;19.50;;;;;10.98;86.29;101745.09;5071820;27;47422;-71
2022/03/16 03:53:07;;;;;;;;;20.00;17.75;;;;;10.97;86.00;101764.41;5071048;27;45915;-71
2022/03/16 03:55:32;;;;;;;;;20.75;19.00;;;;;10.93;86.41;101761.00;5072859;27;45407;-71
2022/03/16 03:57:57;;;;;;;;;23.00;18.50;;;;;10.93;86.34;101761.00;5074858;27;45583;-71
2022/03/16 04:00:24;;;;;;;;;22.25;16.75;;;;;10.90;85.78;101757.56;5076188;27;45459;-71
2022/03/16 04:02:50;;;;;;;;;26.25;18.50;;;;;10.86;85.77;101758.59;5077941;27;45428;-71
2022/03/16 04:05:20;;;;;;;;;20.00;17.00;;;;;10.82;86.00;101757.81;5076144;27;45492;-71
2022/03/16 04:07:45;;;;;;;;;24.00;20.00;;;;;10.81;86.45;101749.97;5076115;27;45493;-71
2022/03/16 04:10:11;;;;;;;;;22.00;20.25;;;;;10.78;86.29;101750.03;5076289;27;45341;-71
2022/03/16 04:12:37;;;;;;;;;17.75;16.25;;;;;10.76;86.12;101743.97;5076493;27;46333;-71
2022/03/16 04:15:03;;;;;;;;;26.75;18.75;;;;;10.73;86.29;101738.78;5077788;27;45492;-71
2022/03/16 04:17:29;;;;;;;;;21.75;15.75;;;;;10.69;86.58;101736.22;5075646;27;45494;-71
2022/03/16 04:19:54;;;;;;;;;22.50;19.75;;;;;10.69;86.55;101738.84;5075525;27;45471;-71
2022/03/16 04:22:19;;;;;;;;;27.75;20.50;;;;;10.66;86.73;101723.19;5075510;27;47752;-71
2022/03/16 04:24:45;;;;;;;;;27.75;21.50;;;;;10.66;86.62;101732.84;5075929;27;45394;-71
2022/03/16 04:27:10;;;;;;;;;22.75;16.75;;;;;10.65;86.84;101723.22;5077103;27;45355;-71
2022/03/16 04:29:35;;;;;;;;;21.00;17.50;;;;;10.65;86.72;101723.22;5074996;28;45367;-71
2022/03/16 04:32:01;;;;;;;;;26.00;18.50;;;;;10.64;87.10;101717.09;5074386;27;46924;-71
2022/03/16 04:34:26;;;;;;;;;25.75;16.75;;;;;10.63;86.86;101715.38;5075697;27;45477;-71
2022/03/16 04:36:52;;;;;;;;;26.50;20.25;;;;;10.63;86.92;101718.00;5074381;27;45492;-71
2022/03/16 04:39:17;;;;;;;;;24.00;19.25;;;;;10.63;87.00;101725.03;5076151;27;45537;-71
2022/03/16 04:41:42;;;;;;;;;28.25;20.75;;;;;10.61;87.05;101721.59;5074688;28;48568;-71
2022/03/16 04:44:09;;;;;;;;;26.25;21.25;;;;;10.59;87.16;101721.59;5075272;27;45479;-71
2022/03/16 04:46:34;;;;;;;;;22.50;17.00;;;;;10.61;87.31;101711.94;5072578;27;45455;-71
2022/03/16 04:48:59;;;;;;;;;22.00;19.50;;;;;10.59;87.03;101705.84;5075014;27;50261;-71
2022/03/16 04:51:24;;;;;;;;;30.75;21.75;;;;;10.58;87.24;101704.13;5075298;27;47264;-71
2022/03/16 04:53:50;;;;;;;;;21.00;19.25;;;;;10.59;87.13;101715.50;5076652;27;45548;-71
2022/03/16 04:56:15;;;;;;;;;24.25;19.00;;;;;10.55;87.24;101712.09;5075310;27;45419;-71
2022/03/16 04:58:40;;;;;;;;;24.75;20.50;;;;;10.56;87.21;101719.09;5074789;27;45389;-71
2022/03/16 05:01:06;;;;;;;;;19.25;14.75;;;;;10.54;86.96;101720.88;5074769;27;45992;-71
2022/03/16 05:03:31;;;;;;;;;25.75;19.00;;;;;10.53;86.99;101721.78;5075558;27;45370;-71
2022/03/16 05:05:57;;;;;;;;;20.75;16.00;;;;;10.52;87.14;101722.69;5076929;27;45352;-71
2022/03/16 05:08:22;;;;;;;;;25.75;21.25;;;;;10.51;86.97;101726.22;5074565;27;45589;-71
2022/03/16 05:10:48;;;;;;;;;19.25;17.75;;;;;10.51;87.22;101722.75;5073802;28;46237;-71
2022/03/16 05:13:13;;;;;;;;;25.50;20.00;;;;;10.49;86.83;101717.50;5074437;27;49484;-71
2022/03/16 05:15:38;;;;;;;;;19.00;19.00;;;;;10.50;86.97;101715.75;5073947;27;45577;-71
2022/03/16 05:18:04;;;;;;;;;23.25;19.25;;;;;10.49;87.02;101711.38;5077405;27;45736;-71
2022/03/16 05:20:29;;;;;;;;;21.75;19.25;;;;;10.49;87.39;101709.63;5074658;27;45910;-71
2022/03/16 05:22:55;;;;;;;;;23.75;19.00;;;;;10.49;87.29;101700.88;5074116;28;49069;-71
2022/03/16 05:25:23;;;;;;;;;24.50;18.50;;;;;10.47;87.29;101698.28;5075112;27;45420;-71
2022/03/16 05:27:49;;;;;;;;;23.00;21.00;;;;;10.48;87.25;101694.75;5075081;27;45405;-71
2022/03/16 05:30:15;;;;;;;;;23.50;20.75;;;;;10.48;87.22;101713.16;5075874;27;45462;-71
2022/03/16 05:32:41;;;;;;;;;17.50;15.75;;;;;10.50;87.10;101716.63;5076216;27;45517;-71
2022/03/16 05:35:11;;;;;;;;;23.50;16.50;;;;;10.50;87.25;101724.50;5075348;27;45384;-71
2022/03/16 05:37:37;;;;;;;;;18.75;18.50;;;;;10.50;87.20;101732.41;5075344;27;45470;-71
2022/03/16 05:40:04;;;;;;;;;20.75;15.75;;;;;10.48;86.85;101728.91;5062372;28;46160;-71
2022/03/16 05:42:29;;;;;;;;;22.25;16.50;;;;;10.47;87.21;101735.09;5074770;27;45311;-71
2022/03/16 05:44:54;;;;;;;;;28.00;22.50;;;;;10.46;87.23;101736.00;5076614;27;45696;-71
2022/03/16 05:47:23;;;;;;;;;21.25;19.25;;;;;10.44;87.01;101733.41;5073450;27;45486;-71
2022/03/16 05:49:53;;;;;;;;;28.00;24.25;;;;;10.43;87.18;101741.31;5073103;27;46170;-71
2022/03/16 05:52:23;;;;;;;;;25.00;24.00;;;;;10.46;87.22;101730.75;5074464;27;47490;-71
2022/03/16 05:54:50;;;;;;;;;85.00;61.25;;;;;10.45;87.19;101731.66;5072983;27;45368;-71
2022/03/16 05:57:15;;;;;;;;;31.00;26.25;;;;;10.47;87.49;101734.22;5075470;27;45303;-71
2022/03/16 05:59:42;;;;;;;;;33.25;29.00;;;;;10.47;87.55;101732.47;5075296;28;46969;-71
2022/03/16 06:02:09;;;;;;;;;29.75;26.00;;;;;10.48;87.34;101735.94;5074179;27;45593;-71
2022/03/16 06:04:34;;;;;;;;;32.75;27.25;;;;;10.50;87.45;101726.28;5074208;27;45772;-71
2022/03/16 06:07:00;;;;;;;;;44.50;35.75;;;;;10.51;87.33;101730.63;5074944;27;45363;-71
2022/03/16 06:09:25;;;;;;;;;49.00;40.50;;;;;10.53;87.65;101734.91;5073408;27;45360;-71
2022/03/16 06:11:50;;;;;;;;;52.50;38.25;;;;;10.58;87.76;101737.44;5076574;27;45421;-71
2022/03/16 06:14:16;;;;;;;;;34.67;30.33;;;;;10.61;87.53;101738.22;5074133;27;47763;-71
2022/03/16 06:16:41;;;;;;;;;41.00;31.25;;;;;10.65;87.49;101744.25;5074219;27;45477;-71
2022/03/16 06:19:06;;;;;;;;;28.75;26.00;;;;;10.66;87.39;101738.97;5073250;27;46312;-71
2022/03/16 06:21:32;;;;;;;;;31.50;25.25;;;;;10.68;87.66;101742.41;5073475;27;46785;-71
2022/03/16 06:23:57;;;;;;;;;27.75;25.25;;;;;10.70;87.30;101735.34;5075431;27;45466;-71
2022/03/16 06:26:22;;;;;;;;;27.00;23.50;;;;;10.71;87.40;101729.19;5071759;27;45476;-71
2022/03/16 06:28:48;;;;;;;;;25.67;21.67;;;;;10.74;87.54;101738.72;5071536;27;62078;-70
2022/03/16 06:31:13;;;;;;;;;37.50;29.75;;;;;10.77;87.38;101737.81;5073885;27;45391;-71
2022/03/16 06:33:38;;;;;;;;;27.00;26.00;;;;;10.80;87.61;101745.59;5072520;27;45485;-71
2022/03/16 06:36:03;;;;;;;;;35.00;29.00;;;;;10.83;87.41;101748.16;5074799;28;49556;-71
2022/03/16 06:38:29;;;;;;;;;40.25;31.00;;;;;10.84;87.41;101741.97;5073126;27;45441;-71
2022/03/16 06:40:54;;;;;;;;;33.00;30.50;;;;;10.89;87.12;101753.22;5073433;27;45352;-71
2022/03/16 06:43:21;;;;;;;;;32.50;23.00;;;;;10.90;87.15;101754.94;5073493;27;45473;-71
2022/03/16 06:45:47;;;;;;;;;31.00;29.75;;;;;10.93;86.92;101749.63;5073814;27;45496;-71
2022/03/16 06:48:12;;;;;;;;;31.25;26.25;;;;;10.93;86.83;101750.47;5074843;27;45799;-71
2022/03/16 06:50:37;;;;;;;;;36.50;24.50;;;;;10.96;87.03;101762.66;5072796;27;45417;-71
2022/03/16 06:53:03;;;;;;;;;27.25;22.50;;;;;11.01;87.36;101759.91;5073131;28;45496;-71
2022/03/16 06:55:28;;;;;;;;;31.00;23.50;;;;;11.04;86.98;101768.56;5073353;27;45565;-70
2022/03/16 06:57:54;;;;;;;;;27.75;23.50;;;;;11.05;86.76;101767.66;5073067;27;46133;-71
2022/03/16 07:00:20;;;;;;;;;26.25;23.25;;;;;11.08;87.04;101780.75;5074051;27;45571;-70
2022/03/16 07:02:49;;;;;;;;;27.50;23.50;;;;;11.12;86.74;101773.59;5075314;28;45454;-70
2022/03/16 07:05:14;;;;;;;;;29.25;22.50;;;;;11.15;86.73;101773.53;5072135;27;45533;-70
2022/03/16 07:07:40;;;;;;;;;32.75;25.00;;;;;11.17;86.82;101780.50;5073122;27;47218;-70
2022/03/16 07:10:06;;;;;;;;;32.50;24.25;;;;;11.17;86.78;101769.97;5072843;27;45398;-70
2022/03/16 07:12:31;;;;;;;;;29.00;25.50;;;;;11.21;86.68;101775.97;5072648;28;45583;-70
2022/03/16 07:14:57;;;;;;;;;34.00;28.00;;;;;11.23;86.54;101772.41;5075457;27;45664;-70
2022/03/16 07:17:22;;;;;;;;;30.50;27.75;;;;;11.26;86.62;101768.81;5073091;27;46095;-70
2022/03/16 07:19:47;;;;;;;;;29.75;27.00;;;;;11.29;86.74;101771.38;5072884;27;47174;-70
2022/03/16 07:22:13;;;;;;;;;33.75;25.00;;;;;11.34;86.49;101771.25;5071982;27;45484;-71
2022/03/16 07:24:40;;;;;;;;;26.67;26.00;;;;;11.36;86.64;101770.28;5072863;28;50351;-71
2022/03/16 07:27:07;;;;;;;;;37.25;26.50;;;;;11.41;86.50;101767.50;5074682;27;47170;-71
2022/03/16 07:29:32;;;;;;;;;34.50;30.00;;;;;11.44;86.38;101773.56;5072138;28;45511;-71
2022/03/16 07:31:57;;;;;;;;;31.25;24.50;;;;;11.47;86.63;101762.06;5072179;27;45404;-69
2022/03/16 07:34:23;;;;;;;;;37.25;25.50;;;;;11.50;86.20;101767.25;5071151;27;49865;-71
2022/03/16 07:36:48;;;;;;;;;37.75;25.50;;;;;11.58;86.38;101769.63;5072197;27;46911;-71
2022/03/16 07:39:14;;;;;;;;;35.50;28.50;;;;;11.61;86.24;101772.16;5074067;27;45711;-72
2022/03/16 07:41:39;;;;;;;;;32.25;28.25;;;;;11.64;86.03;101770.31;5073252;28;45474;-71
2022/03/16 07:44:05;;;;;;;;;30.75;26.00;;;;;11.68;86.03;101768.44;5071699;27;45383;-72
2022/03/16 07:46:31;;;;;;;;;29.75;27.50;;;;;11.71;85.83;101779.75;5070302;27;46257;-71
2022/03/16 07:48:56;;;;;;;;;32.25;27.25;;;;;11.77;85.89;101768.16;5072490;27;45484;-71
2022/03/16 07:51:21;;;;;;;;;30.00;24.75;;;;;11.80;85.62;101768.06;5073080;27;45284;-72
2022/03/16 07:53:48;;;;;;;;;38.75;32.25;;;;;11.84;85.46;101771.47;5072701;28;45541;-72
2022/03/16 07:56:13;;;;;;;;;33.75;26.00;;;;;11.89;85.56;101780.09;5071742;27;55495;-71
2022/03/16 07:58:40;;;;;;;;;31.75;28.25;;;;;11.92;85.02;101777.38;5072227;27;47837;-71
2022/03/16 08:01:06;;;;;;;;;33.00;28.00;;;;;11.93;84.83;101779.09;5072725;27;45439;-71
2022/03/16 08:03:31;;;;;;;;;33.00;26.25;;;;;11.95;84.98;101775.53;5073654;27;45283;-72
2022/03/16 08:05:56;;;;;;;;;33.25;27.50;;;;;11.99;84.90;101773.63;5073947;27;46098;-71
2022/03/16 08:08:22;;;;;;;;;29.75;29.50;;;;;12.02;84.45;101768.28;5072419;27;45392;-72
2022/03/16 08:10:47;;;;;;;;;29.00;25.25;;;;;12.04;84.72;101763.81;5071016;27;45674;-72
2022/03/16 08:13:13;;;;;;;;;30.50;24.00;;;;;12.07;84.65;101774.25;5072243;27;45455;-72
2022/03/16 08:15:38;;;;;;;;;31.75;26.00;;;;;12.09;84.38;101761.88;5072122;27;52689;-72
2022/03/16 08:18:03;;;;;;;;;34.50;26.75;;;;;12.12;84.75;101756.53;5074230;27;45587;-71
2022/03/16 08:20:29;;;;;;;;;29.00;25.00;;;;;12.16;84.22;101763.41;5072576;27;45683;-71
2022/03/16 08:22:56;;;;;;;;;32.25;29.00;;;;;12.18;84.41;101760.72;5070112;28;45426;-72
2022/03/16 08:25:22;;;;;;;;;28.50;24.75;;;;;12.22;83.87;101754.44;5070328;27;47227;-72
2022/03/16 08:27:48;;;;;;;;;34.25;28.75;;;;;12.24;84.01;101755.25;5073081;27;46113;-72
2022/03/16 08:30:15;;;;;;;;;30.50;24.50;;;;;12.21;83.75;101756.19;5073402;27;45477;-72
2022/03/16 08:32:41;;;;;;;;;29.25;23.50;;;;;12.21;83.78;101753.56;5072494;27;45707;-72
2022/03/16 08:35:07;;;;;;;;;27.25;25.00;;;;;12.23;83.70;101753.53;5071639;27;45403;-72
2022/03/16 08:37:33;;;;;;;;;22.25;17.50;;;;;12.27;83.86;101755.16;5069711;27;45384;-72
2022/03/16 08:39:58;;;;;;;;;31.75;27.25;;;;;12.32;83.73;101749.69;5071747;27;45816;-72
2022/03/16 08:42:24;;;;;;;;;40.00;28.25;;;;;12.31;83.38;101747.97;5072446;27;45382;-72
2022/03/16 08:44:49;;;;;;;;;23.25;23.25;;;;;12.35;83.33;101753.09;5077058;27;46192;-72
2022/03/16 08:47:19;;;;;;;;;35.75;26.00;;;;;12.37;83.21;101761.84;5074585;28;45553;-71
2022/03/16 08:49:46;;;;;;;;;39.00;34.00;;;;;12.45;83.38;101766.84;5074931;27;45519;-71
2022/03/16 08:52:12;;;;;;;;;32.50;27.00;;;;;12.50;83.30;101764.91;5075505;27;45542;-72
2022/03/16 08:54:38;;;;;;;;;32.25;26.00;;;;;12.55;82.82;101770.88;5075345;27;45460;-71
2022/03/16 08:57:04;;;;;;;;;33.00;26.75;;;;;12.62;82.80;101771.50;5077286;27;45944;-71
2022/03/16 08:59:30;;;;;;;;;27.50;26.75;;;;;12.68;82.78;101777.44;5075308;28;45411;-71
2022/03/16 09:01:55;;;;;;;;;20.75;20.75;;;;;12.74;82.62;101773.75;5073061;27;45554;-72
2022/03/16 09:04:21;;;;;;;;;36.50;27.50;;;;;12.77;82.44;101776.25;5073140;27;46114;-72
2022/03/16 09:06:48;;;;;;;;;25.50;22.50;;;;;12.81;82.19;101777.88;5074662;27;46150;-72
2022/03/16 09:09:14;;;;;;;;;32.00;25.50;;;;;12.90;nan;101785.47;5073634;27;45499;-72
2022/03/16 09:11:40;;;;;;;;;32.75;25.00;;;;;12.98;82.28;101782.53;5077380;27;45535;-71
2022/03/16 09:14:05;;;;;;;;;30.50;23.25;;;;;13.06;82.05;101783.13;5075084;27;46342;-72
2022/03/16 09:16:31;;;;;;;;;26.25;23.00;;;;;13.11;82.01;101778.56;5073193;28;45477;-72
2022/03/16 09:18:56;;;;;;;;;32.75;27.75;;;;;13.22;81.93;101789.59;5074453;27;45362;-72
2022/03/16 09:21:24;;;;;;;;;33.50;26.75;;;;;13.31;81.30;101797.19;5075806;27;45300;-72
2022/03/16 09:23:49;;;;;;;;;32.25;27.75;;;;;13.37;80.72;101788.16;5062998;28;46239;-70
2022/03/16 09:26:14;;;;;;;;;29.75;26.25;;;;;13.40;80.88;101781.91;5073169;28;45287;-72
2022/03/16 09:28:40;;;;;;;;;29.25;24.75;;;;;13.47;80.60;101783.41;5074076;27;45515;-72
2022/03/16 09:31:09;;;;;;;;;29.75;25.50;;;;;13.52;80.47;101781.41;5072919;27;45467;-70
2022/03/16 09:33:34;;;;;;;;;30.00;25.75;;;;;13.57;80.19;101775.06;5067730;28;45473;-72
2022/03/16 09:36:00;;;;;;;;;35.25;27.00;;;;;13.57;79.93;101776.81;5077206;28;45431;-70
2022/03/16 09:38:26;;;;;;;;;48.75;39.25;;;;;13.61;79.84;101778.44;5070307;28;45937;-71
2022/03/16 09:40:54;;;;;;;;;38.50;31.25;;;;;13.68;79.75;101789.63;5077235;27;48194;-70
2022/03/16 09:43:21;;;;;;;;;28.50;22.50;;;;;13.76;79.57;101787.53;5085155;27;47223;-73
2022/03/16 09:46:24;;;;;;;;;31.25;28.00;;;;;13.83;78.90;101789.91;5072274;27;45809;-71
2022/03/16 09:48:50;;;;;;;;;36.50;32.00;;;;;13.92;78.74;101790.44;5051622;28;45612;-70
2022/03/16 09:51:17;;;;;;;;;36.25;30.25;;;;;13.94;78.57;101783.28;5052666;28;45679;-73
2022/03/16 09:53:42;;;;;;;;;35.25;28.50;;;;;13.99;78.39;101783.97;5055316;28;46244;-70
2022/03/16 09:56:09;;;;;;;;;35.00;30.25;;;;;14.00;78.04;101773.34;5050069;28;45762;-72
2022/03/16 09:58:34;;;;;;;;;35.75;27.00;;;;;14.05;77.94;101775.81;5050107;28;45866;-70
2022/03/16 10:01:00;;;;;;;;;39.00;30.75;;;;;14.08;77.80;101765.09;5049985;28;45542;-72
2022/03/16 10:03:28;;;;;;;;;35.50;30.50;;;;;14.09;77.88;101765.06;5049436;28;47111;-70
2022/03/16 10:05:55;;;;;;;;;32.50;30.25;;;;;14.13;77.42;101764.91;5050655;28;45594;-70
2022/03/16 10:08:35;;;;;;;;;37.25;29.25;;;;;14.15;76.98;101763.06;5050458;28;45715;-70
2022/03/16 10:14:06;;;;;;;;;30.50;26.25;;;;;14.24;76.90;101765.31;5049401;28;45613;-71
2022/03/16 10:19:19;;;;;;;;;27.75;23.50;;;;;14.31;76.42;101759.72;5049789;28;45508;-70
2022/03/16 10:21:57;;;;;;;;;28.75;22.75;;;;;14.36;76.56;101756.91;5050111;28;45689;-70
2022/03/16 10:24:28;;;;;;;;;31.75;30.00;;;;;14.40;76.40;101752.31;5052759;28;46089;-71
2022/03/16 10:26:54;;;;;;;;;28.50;24.25;;;;;14.51;76.63;101752.75;5072278;28;45943;-70
2022/03/16 10:29:22;;;;;;;;;40.25;30.00;;;;;14.54;75.94;101753.47;5069821;27;45667;-70
2022/03/16 10:32:03;;;;;;;;;30.00;25.25;;;;;14.60;75.58;101753.19;5069622;27;45658;-70
2022/03/16 10:34:29;;;;;;;;;28.75;28.50;;;;;14.65;75.27;101746.88;5069778;27;47951;-70
2022/03/16 10:36:59;;;;;;;;;33.75;27.00;;;;;14.70;75.27;101751.03;5069692;27;45538;-70
2022/03/16 10:39:37;;;;;;;;;26.75;21.75;;;;;14.73;75.19;101748.25;5071883;27;45933;-70
2022/03/16 10:47:58;;;;;;;;;36.25;24.00;;;;;15.10;74.74;101738.66;5072536;28;45929;-70
2022/03/16 10:50:23;;;;;;;;;79.50;63.75;;;;;15.22;74.09;101740.72;5068630;27;45521;-71
2022/03/16 10:52:50;;;;;;;;;26.50;25.25;;;;;15.30;73.66;101743.03;5069382;27;45511;-71
2022/03/16 10:55:18;;;;;;;;;27.25;23.00;;;;;15.31;73.73;101739.44;5071159;27;45491;-71
2022/03/16 10:57:44;;;;;;;;;26.50;25.50;;;;;15.43;73.44;101735.38;5070266;27;45647;-71
2022/03/16 11:00:10;;;;;;;;;34.00;25.25;;;;;15.52;73.17;101730.50;5075090;27;45490;-71
2022/03/16 11:02:38;;;;;;;;;30.50;25.50;;;;;15.60;73.24;101719.50;5074534;27;47266;-71
2022/03/16 11:05:04;;;;;;;;;41.00;32.75;;;;;15.75;72.98;101718.81;5073273;27;45749;-71
2022/03/16 11:07:31;;;;;;;;;35.75;26.25;;;;;15.85;72.68;101709.47;5073068;27;45430;-71
2022/03/16 11:09:57;;;;;;;;;31.25;25.00;;;;;15.98;72.17;101708.88;5072593;27;45498;-71
2022/03/16 11:15:08;;;;;;;;;34.00;27.50;;;;;16.12;72.02;101706.38;5087391;27;45671;-71
2022/03/16 11:17:37;;;;;;;;;38.50;31.25;;;;;16.23;71.41;101703.16;5077531;27;45898;-71
2022/03/16 11:20:04;;;;;;;;;36.75;29.75;;;;;16.33;71.20;101696.44;5077779;27;45567;-71